Terminal Aerodrome Forecast
Issued by NWS

Home | Current Version | Previous Version | Text Only | Print | Product List | Glossary On
Versions: 1 2 3 4 5 6 7 8 9 10 11 12 13 14 15 16
000
FTUS44 KOUN 302338
TAFCSM
TAF
KCSM 302338Z 3100/3124 36009KT P6SM VCTS SCT060CB BKN250
     FM310200 VRB04KT P6SM SCT030 BKN250
     FM311500 02008KT P6SM SCT100 BKN250 PROB30 3118/3124 2SM TSRA
      BKN040CB BKN150=

USA.gov is the U.S. government's official web portal to all federal, state and local government web resources and services.